createdAt,value
2023-05-01T00:02:43.225Z,9.10
2023-05-01T00:05:46.496Z,9.02
2023-05-01T00:08:49.186Z,8.96
2023-05-01T00:11:51.999Z,8.85
2023-05-01T00:14:55.400Z,8.87
2023-05-01T00:17:58.600Z,8.81
2023-05-01T00:21:01.269Z,8.75
2023-05-01T00:24:03.892Z,8.71
2023-05-01T00:27:06.359Z,8.64
2023-05-01T00:30:09.436Z,8.56
2023-05-01T00:33:12.113Z,8.60
2023-05-01T00:36:14.815Z,8.49
2023-05-01T00:39:17.649Z,8.48
2023-05-01T00:42:20.150Z,8.40
2023-05-01T00:45:22.602Z,8.38
2023-05-01T00:48:26.031Z,8.40
2023-05-01T00:51:29.982Z,8.38
2023-05-01T00:54:32.713Z,8.37
2023-05-01T00:57:35.889Z,8.34
2023-05-01T01:00:39.014Z,8.25
2023-05-01T01:03:41.512Z,8.24
2023-05-01T01:07:03.953Z,8.24
2023-05-01T01:10:19.451Z,8.22
2023-05-01T01:13:33.084Z,8.10
2023-05-01T01:16:46.032Z,8.13
2023-05-01T01:20:26.983Z,8.01
2023-05-01T01:23:30.572Z,7.96
2023-05-01T01:26:57.034Z,7.94
2023-05-01T01:30:23.656Z,7.88
2023-05-01T01:33:49.496Z,7.82
2023-05-01T01:36:57.906Z,7.83
2023-05-01T01:40:02.846Z,7.71
2023-05-01T01:43:13.572Z,7.67
2023-05-01T01:46:18.018Z,7.69
2023-05-01T01:49:25.253Z,7.70
2023-05-01T01:52:30.350Z,7.72
2023-05-01T01:55:36.054Z,7.75
2023-05-01T01:58:40.748Z,7.59
2023-05-01T02:01:44.773Z,7.66
2023-05-01T02:04:52.180Z,7.64
2023-05-01T02:07:56.554Z,7.52
2023-05-01T02:11:02.208Z,7.43
2023-05-01T02:14:08.877Z,7.37
2023-05-01T02:17:12.801Z,7.34
2023-05-01T02:20:16.135Z,7.28
2023-05-01T02:23:18.884Z,7.24
2023-05-01T02:26:25.371Z,7.16
2023-05-01T02:29:28.151Z,7.12
2023-05-01T02:32:31.939Z,7.07
2023-05-01T02:35:44.793Z,7.09
2023-05-01T02:38:51.029Z,7.13
2023-05-01T02:41:55.883Z,7.14
2023-05-01T02:45:01.737Z,7.18
2023-05-01T02:48:10.206Z,7.19
2023-05-01T02:51:13.326Z,7.11
2023-05-01T02:54:17.454Z,6.98
2023-05-01T02:57:20.525Z,6.91
2023-05-01T03:00:23.592Z,6.87
2023-05-01T03:03:27.946Z,6.84
2023-05-01T03:06:31.290Z,6.88
2023-05-01T03:09:34.014Z,6.85
2023-05-01T03:12:37.809Z,6.81
2023-05-01T03:15:40.307Z,6.74
2023-05-01T03:18:42.889Z,6.71
2023-05-01T03:21:45.372Z,6.71
2023-05-01T03:24:47.908Z,6.65
2023-05-01T03:27:50.451Z,6.69
2023-05-01T03:30:53.184Z,6.70
2023-05-01T03:33:56.075Z,6.71
2023-05-01T03:36:58.613Z,6.58
2023-05-01T03:40:03.520Z,6.56
2023-05-01T03:43:25.524Z,6.66
2023-05-01T03:46:29.197Z,6.69
2023-05-01T03:49:32.137Z,6.65
2023-05-01T03:52:34.899Z,6.64
2023-05-01T03:55:37.449Z,6.70
2023-05-01T03:58:40.117Z,6.76
2023-05-01T04:01:42.667Z,6.77
2023-05-01T04:04:45.275Z,6.79
2023-05-01T04:07:47.780Z,6.79
2023-05-01T04:10:50.690Z,6.87
2023-05-01T04:13:53.258Z,6.95
2023-05-01T04:16:56.705Z,7.03
2023-05-01T04:20:01.063Z,7.12
2023-05-01T04:23:03.663Z,7.19
2023-05-01T04:26:06.312Z,7.30
2023-05-01T04:29:09.498Z,7.40
2023-05-01T04:32:12.134Z,7.45
2023-05-01T04:35:15.007Z,7.55
2023-05-01T04:38:19.818Z,7.58
2023-05-01T04:41:22.489Z,7.68
2023-05-01T04:44:25.592Z,7.83
2023-05-01T04:47:28.863Z,8.02
2023-05-01T04:50:31.889Z,8.16
2023-05-01T04:53:34.406Z,8.25
2023-05-01T04:56:38.204Z,8.40
2023-05-01T04:59:41.004Z,8.58
2023-05-01T05:02:44.156Z,8.67
2023-05-01T05:05:49.233Z,8.68
2023-05-01T05:08:52.232Z,8.81
2023-05-01T05:11:55.003Z,8.94
2023-05-01T05:14:59.083Z,9.07
2023-05-01T05:18:03.918Z,9.18
2023-05-01T05:21:10.445Z,9.26
2023-05-01T05:24:15.142Z,9.38
2023-05-01T05:27:17.753Z,9.55
2023-05-01T05:30:20.567Z,9.55
2023-05-01T05:33:25.005Z,9.60
2023-05-01T05:36:27.849Z,9.64
2023-05-01T05:39:31.665Z,9.89
2023-05-01T05:42:34.341Z,10.17
2023-05-01T05:45:40.948Z,10.24
2023-05-01T05:48:43.593Z,10.33
2023-05-01T05:51:46.653Z,10.31
2023-05-01T05:54:49.571Z,10.38
2023-05-01T05:57:52.272Z,10.56
2023-05-01T06:00:56.017Z,10.80
2023-05-01T06:03:58.750Z,10.93
2023-05-01T06:07:04.476Z,11.11
2023-05-01T06:10:07.620Z,11.20
2023-05-01T06:13:13.962Z,11.35
2023-05-01T06:16:20.471Z,11.52
2023-05-01T06:19:23.079Z,11.68
2023-05-01T06:22:29.586Z,11.79
2023-05-01T06:25:53.377Z,11.94
2023-05-01T06:28:56.288Z,12.07
2023-05-01T06:31:59.890Z,12.15
2023-05-01T06:35:02.584Z,12.24
2023-05-01T06:38:05.426Z,12.32
2023-05-01T06:41:08.083Z,12.36
2023-05-01T06:44:10.686Z,12.48
2023-05-01T06:47:13.979Z,12.56
2023-05-01T06:50:16.663Z,12.66
2023-05-01T06:53:19.248Z,12.72
2023-05-01T06:56:21.768Z,12.69
2023-05-01T06:59:25.448Z,12.67
2023-05-01T07:02:28.029Z,12.73
2023-05-01T07:05:31.054Z,12.82
2023-05-01T07:08:33.513Z,12.81
2023-05-01T07:11:36.692Z,12.90
2023-05-01T07:14:39.659Z,13.13
2023-05-01T07:17:42.667Z,13.37
2023-05-01T07:20:45.661Z,13.54
2023-05-01T07:23:48.227Z,13.62
2023-05-01T07:26:51.763Z,13.83
2023-05-01T07:29:56.412Z,13.85
2023-05-01T07:32:59.315Z,13.88
2023-05-01T07:36:02.094Z,13.91
2023-05-01T07:39:05.078Z,14.02
2023-05-01T07:42:08.035Z,13.85
2023-05-01T07:45:11.227Z,13.91
2023-05-01T07:48:14.004Z,13.83
2023-05-01T07:51:18.469Z,13.89
2023-05-01T07:54:22.672Z,14.04
2023-05-01T07:57:25.215Z,14.15
2023-05-01T08:00:28.285Z,14.38
2023-05-01T08:03:31.866Z,14.52
2023-05-01T08:06:34.496Z,14.51
2023-05-01T08:09:37.097Z,14.61
2023-05-01T08:12:39.895Z,14.52
2023-05-01T08:15:43.068Z,14.58
2023-05-01T08:18:46.518Z,14.74
2023-05-01T08:21:49.236Z,14.91
2023-05-01T08:24:52.464Z,14.97
2023-05-01T08:27:55.052Z,15.03
2023-05-01T08:30:57.564Z,15.19
2023-05-01T08:34:00.976Z,15.24
2023-05-01T08:37:03.495Z,15.28
2023-05-01T08:40:08.952Z,15.20
2023-05-01T08:43:13.131Z,15.25
2023-05-01T08:46:51.532Z,15.41
2023-05-01T08:49:55.790Z,15.48
2023-05-01T08:52:59.462Z,15.61
2023-05-01T08:56:06.600Z,15.71
2023-05-01T08:59:10.086Z,15.75
2023-05-01T09:02:16.131Z,15.86
2023-05-01T09:05:20.072Z,16.05
2023-05-01T09:08:22.786Z,16.11
2023-05-01T09:11:26.199Z,16.10
2023-05-01T09:14:31.190Z,16.13
2023-05-01T09:17:34.606Z,16.15
2023-05-01T09:20:37.896Z,15.90
2023-05-01T09:23:41.093Z,16.33
2023-05-01T09:26:43.765Z,16.46
2023-05-01T09:29:47.928Z,16.60
2023-05-01T09:33:04.681Z,16.66
2023-05-01T09:36:08.588Z,16.79
2023-05-01T09:39:23.092Z,16.75
2023-05-01T09:42:26.008Z,16.91
2023-05-01T09:45:28.810Z,16.85
2023-05-01T09:48:34.815Z,16.99
2023-05-01T09:51:38.104Z,17.01
2023-05-01T09:54:41.380Z,17.12
2023-05-01T09:57:45.473Z,17.28
2023-05-01T10:00:51.676Z,17.09
2023-05-01T10:03:55.525Z,17.21
2023-05-01T10:07:13.426Z,17.36
2023-05-01T10:10:17.027Z,17.45
2023-05-01T10:13:19.763Z,17.35
2023-05-01T10:16:30.552Z,17.53
2023-05-01T10:19:33.227Z,17.66
2023-05-01T10:22:35.789Z,17.69
2023-05-01T10:25:41.739Z,17.82
2023-05-01T10:28:46.523Z,18.01
2023-05-01T10:31:49.229Z,18.24
2023-05-01T10:35:01.894Z,18.40
2023-05-01T10:38:10.236Z,18.46
2023-05-01T10:41:13.247Z,18.45
2023-05-01T10:44:27.906Z,18.71
2023-05-01T10:47:31.581Z,18.87
2023-05-01T10:50:34.789Z,18.91
2023-05-01T10:53:38.745Z,18.87
2023-05-01T10:56:43.440Z,19.20
2023-05-01T11:00:05.186Z,19.23
2023-05-01T11:03:23.138Z,19.47
2023-05-01T11:06:26.378Z,19.70
2023-05-01T11:09:55.508Z,19.86
2023-05-01T11:12:58.674Z,20.06
2023-05-01T11:16:39.468Z,20.28
2023-05-01T11:19:47.710Z,20.09
2023-05-01T11:22:58.077Z,20.02
2023-05-01T11:26:04.797Z,20.37
2023-05-01T11:29:08.158Z,20.55
2023-05-01T11:32:11.277Z,20.40
2023-05-01T11:35:21.714Z,20.86
2023-05-01T11:38:24.291Z,21.14
2023-05-01T11:41:27.357Z,21.56
2023-05-01T11:44:30.447Z,20.93
2023-05-01T11:47:32.997Z,20.77
2023-05-01T11:50:38.286Z,20.89
2023-05-01T11:53:40.909Z,21.36
2023-05-01T11:56:43.563Z,21.96
2023-05-01T11:59:48.033Z,22.26
2023-05-01T12:03:03.149Z,22.57
2023-05-01T12:06:05.920Z,23.09
2023-05-01T12:09:08.925Z,23.73
2023-05-01T12:12:13.064Z,24.42
2023-05-01T12:15:15.610Z,24.21
2023-05-01T12:18:18.810Z,24.79
2023-05-01T12:21:22.771Z,24.67
2023-05-01T12:24:25.644Z,25.17
2023-05-01T12:27:28.175Z,25.56
2023-05-01T12:30:31.040Z,25.68
2023-05-01T12:33:33.603Z,25.66
2023-05-01T12:36:37.725Z,26.76
2023-05-01T12:39:42.673Z,27.41
2023-05-01T12:42:57.881Z,27.75
2023-05-01T12:46:01.458Z,27.76
2023-05-01T12:49:05.355Z,28.10
2023-05-01T12:52:09.137Z,27.37
2023-05-01T12:55:12.896Z,28.40
2023-05-01T12:58:16.462Z,28.70
2023-05-01T13:01:28.919Z,29.07
2023-05-01T13:04:32.459Z,28.83
2023-05-01T13:07:36.328Z,28.68
2023-05-01T13:10:39.592Z,28.47
2023-05-01T13:13:44.997Z,28.37
2023-05-01T13:16:49.109Z,28.59
2023-05-01T13:19:56.197Z,28.76
2023-05-01T13:22:59.175Z,28.90
2023-05-01T13:26:02.690Z,28.20
2023-05-01T13:29:06.129Z,29.10
2023-05-01T13:32:11.485Z,29.07
2023-05-01T13:35:23.630Z,27.92
2023-05-01T13:38:27.268Z,28.28
2023-05-01T13:41:30.626Z,29.16
2023-05-01T13:44:33.939Z,30.08
2023-05-01T13:47:40.451Z,29.83
2023-05-01T13:50:43.228Z,30.00
2023-05-01T13:53:46.243Z,30.75
2023-05-01T13:56:49.113Z,30.45
2023-05-01T13:59:51.820Z,30.01
2023-05-01T14:02:56.670Z,31.34
2023-05-01T14:05:59.843Z,31.17
2023-05-01T14:09:04.018Z,31.16
2023-05-01T14:12:06.489Z,29.16
2023-05-01T14:15:11.687Z,30.31
2023-05-01T14:18:17.803Z,30.17
2023-05-01T14:21:22.813Z,29.16
2023-05-01T14:24:25.489Z,29.63
2023-05-01T14:27:28.030Z,28.56
2023-05-01T14:30:38.759Z,29.77
2023-05-01T14:33:43.677Z,29.62
2023-05-01T14:36:46.297Z,29.90
2023-05-01T14:39:48.942Z,31.15
2023-05-01T14:42:51.551Z,31.29
2023-05-01T14:45:55.726Z,31.27
2023-05-01T14:49:00.131Z,30.50
2023-05-01T14:52:03.378Z,30.38
2023-05-01T14:55:06.809Z,30.66
2023-05-01T14:58:09.898Z,30.24
2023-05-01T15:01:14.274Z,29.58
2023-05-01T15:04:17.438Z,29.03
2023-05-01T15:07:20.233Z,29.20
2023-05-01T15:10:24.075Z,28.78
2023-05-01T15:13:27.100Z,28.38
2023-05-01T15:16:30.863Z,28.63
2023-05-01T15:19:33.874Z,29.05
2023-05-01T15:22:37.582Z,29.52
2023-05-01T15:25:43.840Z,29.40
2023-05-01T15:28:46.430Z,30.09
2023-05-01T15:31:53.756Z,30.22
2023-05-01T15:35:01.424Z,30.61
2023-05-01T15:38:04.403Z,29.78
2023-05-01T15:41:07.363Z,28.67
2023-05-01T15:44:11.130Z,28.59
2023-05-01T15:47:14.713Z,28.22
2023-05-01T15:50:17.375Z,27.84
2023-05-01T15:53:21.315Z,27.46
2023-05-01T15:56:23.853Z,27.37
2023-05-01T15:59:27.184Z,26.99
2023-05-01T16:02:33.141Z,25.79
2023-05-01T16:05:36.840Z,25.75
2023-05-01T16:08:40.073Z,25.39
2023-05-01T16:11:43.479Z,24.75
2023-05-01T16:14:48.192Z,24.00
2023-05-01T16:17:51.963Z,23.32
2023-05-01T16:20:56.744Z,23.41
2023-05-01T16:24:01.542Z,23.06
2023-05-01T16:27:04.139Z,23.10
2023-05-01T16:30:07.511Z,22.81
2023-05-01T16:33:23.337Z,22.36
2023-05-01T16:36:25.914Z,22.09
2023-05-01T16:39:28.562Z,21.77
2023-05-01T16:42:31.062Z,21.71
2023-05-01T16:45:33.889Z,21.36
2023-05-01T16:48:36.863Z,21.22
2023-05-01T16:51:42.343Z,20.90
2023-05-01T16:54:44.933Z,20.69
2023-05-01T16:57:47.615Z,20.45
2023-05-01T17:00:50.456Z,20.50
2023-05-01T17:03:53.155Z,20.36
2023-05-01T17:06:56.289Z,20.10
2023-05-01T17:09:59.335Z,19.97
2023-05-01T17:13:02.054Z,19.65
2023-05-01T17:16:04.907Z,19.53
2023-05-01T17:19:09.828Z,19.27
2023-05-01T17:22:12.574Z,18.95
2023-05-01T17:25:15.228Z,18.57
2023-05-01T17:28:19.010Z,18.30
2023-05-01T17:31:22.769Z,18.21
2023-05-01T17:34:25.399Z,17.96
2023-05-01T17:37:28.288Z,17.72
2023-05-01T17:40:32.344Z,17.50
2023-05-01T17:43:34.912Z,17.56
2023-05-01T17:46:39.046Z,17.47
2023-05-01T17:49:41.686Z,17.49
2023-05-01T17:52:47.514Z,17.43
2023-05-01T17:55:50.035Z,17.37
2023-05-01T17:58:54.222Z,17.27
2023-05-01T18:01:58.473Z,17.16
2023-05-01T18:05:04.164Z,17.08
2023-05-01T18:08:07.536Z,17.02
2023-05-01T18:11:10.148Z,16.91
2023-05-01T18:14:13.006Z,16.83
2023-05-01T18:17:15.836Z,16.73
2023-05-01T18:20:18.694Z,16.66
2023-05-01T18:23:21.366Z,16.54
2023-05-01T18:26:26.181Z,16.47
2023-05-01T18:29:29.503Z,16.41
2023-05-01T18:32:46.356Z,16.24
2023-05-01T18:35:50.462Z,16.10
2023-05-01T18:38:53.916Z,16.11
2023-05-01T18:41:56.788Z,16.05
2023-05-01T18:44:59.592Z,16.00
2023-05-01T18:48:03.197Z,15.92
2023-05-01T18:51:08.948Z,15.72
2023-05-01T18:54:14.116Z,15.55
2023-05-01T18:57:16.694Z,15.46
2023-05-01T19:00:21.448Z,15.38
2023-05-01T19:03:24.279Z,15.37
2023-05-01T19:06:27.003Z,15.32
2023-05-01T19:09:29.923Z,15.30
2023-05-01T19:12:39.422Z,15.27
2023-05-01T19:15:43.659Z,15.17
2023-05-01T19:18:48.415Z,15.07
2023-05-01T19:21:51.903Z,15.13
2023-05-01T19:24:54.642Z,15.00
2023-05-01T19:27:57.473Z,14.92
2023-05-01T19:31:00.382Z,14.82
2023-05-01T19:34:03.280Z,14.84
2023-05-01T19:37:06.526Z,14.87
2023-05-01T19:40:10.134Z,14.87
2023-05-01T19:43:16.220Z,14.80
2023-05-01T19:46:19.038Z,14.69
2023-05-01T19:49:24.038Z,14.67
2023-05-01T19:52:27.566Z,14.71
2023-05-01T19:55:30.894Z,14.64
2023-05-01T19:58:33.681Z,14.54
2023-05-01T20:01:38.827Z,14.44
2023-05-01T20:04:42.047Z,14.31
2023-05-01T20:07:45.414Z,14.23
2023-05-01T20:10:49.100Z,14.15
2023-05-01T20:13:51.821Z,14.07
2023-05-01T20:16:54.966Z,13.93
2023-05-01T20:19:58.055Z,13.88
2023-05-01T20:23:11.984Z,13.83
2023-05-01T20:26:15.161Z,13.81
2023-05-01T20:29:18.120Z,13.78
2023-05-01T20:32:21.210Z,13.78
2023-05-01T20:35:23.757Z,13.74
2023-05-01T20:38:27.249Z,13.61
2023-05-01T20:41:30.944Z,13.55
2023-05-01T20:44:33.642Z,13.46
2023-05-01T20:47:36.171Z,13.41
2023-05-01T20:50:38.932Z,13.43
2023-05-01T20:53:41.581Z,13.37
2023-05-01T20:56:44.150Z,13.33
2023-05-01T20:59:50.934Z,13.18
2023-05-01T21:02:53.526Z,13.19
2023-05-01T21:05:59.848Z,13.15
2023-05-01T21:09:04.482Z,13.04
2023-05-01T21:12:07.346Z,12.98
2023-05-01T21:15:11.669Z,12.95
2023-05-01T21:18:16.939Z,12.89
2023-05-01T21:21:19.540Z,12.80
2023-05-01T21:24:25.852Z,12.76
2023-05-01T21:27:28.424Z,12.58
2023-05-01T21:30:34.389Z,12.54
2023-05-01T21:33:38.728Z,12.52
2023-05-01T21:36:47.598Z,12.42
2023-05-01T21:39:51.045Z,12.34
2023-05-01T21:42:54.627Z,12.26
2023-05-01T21:45:57.120Z,12.15
2023-05-01T21:49:00.291Z,12.14
2023-05-01T21:52:11.663Z,12.05
2023-05-01T21:55:25.204Z,12.11
2023-05-01T21:58:28.187Z,12.25
2023-05-01T22:01:31.639Z,12.25
2023-05-01T22:04:35.330Z,12.22
2023-05-01T22:07:40.103Z,12.26
2023-05-01T22:10:43.094Z,12.31
2023-05-01T22:13:46.306Z,12.30
2023-05-01T22:16:48.913Z,12.19
2023-05-01T22:19:51.855Z,12.17
2023-05-01T22:22:54.467Z,12.23
2023-05-01T22:26:00.133Z,12.16
2023-05-01T22:29:02.753Z,12.11
2023-05-01T22:32:05.835Z,12.06
2023-05-01T22:35:08.907Z,12.04
2023-05-01T22:38:11.457Z,12.05
2023-05-01T22:41:15.274Z,12.06
2023-05-01T22:44:17.997Z,11.96
2023-05-01T22:47:20.571Z,11.87
2023-05-01T22:50:23.152Z,11.80
2023-05-01T22:53:26.822Z,11.79
2023-05-01T22:56:29.513Z,11.75
2023-05-01T22:59:32.222Z,11.61
2023-05-01T23:02:34.891Z,11.57
2023-05-01T23:05:37.890Z,11.66
2023-05-01T23:08:40.549Z,11.69
2023-05-01T23:11:43.164Z,11.60
2023-05-01T23:14:46.782Z,11.54
2023-05-01T23:17:49.319Z,11.45
2023-05-01T23:20:52.557Z,11.42
2023-05-01T23:23:55.047Z,11.26
2023-05-01T23:26:57.695Z,11.17
2023-05-01T23:30:00.593Z,11.17
2023-05-01T23:33:06.058Z,11.23
2023-05-01T23:36:13.826Z,11.10
2023-05-01T23:39:16.682Z,11.06
2023-05-01T23:42:21.200Z,11.02
2023-05-01T23:45:23.762Z,11.00
2023-05-01T23:48:26.662Z,11.00
2023-05-01T23:51:29.843Z,10.99
2023-05-01T23:54:33.337Z,10.97
2023-05-01T23:57:35.844Z,11.01
